sensor_id;sensor_type;location;lat;lon;timestamp;pressure;altitude;pressure_sealevel;temperature;humidity
9059;BME280;4564;42.034;25.834;2022-11-02T00:01:29;100821.50;;;9.65;81.39
9059;BME280;4564;42.034;25.834;2022-11-02T00:03:59;100817.09;;;9.64;81.48
9059;BME280;4564;42.034;25.834;2022-11-02T00:06:25;100820.31;;;9.68;80.97
9059;BME280;4564;42.034;25.834;2022-11-02T00:08:52;100820.81;;;9.63;80.83
9059;BME280;4564;42.034;25.834;2022-11-02T00:11:18;100814.41;;;9.64;80.99
9059;BME280;4564;42.034;25.834;2022-11-02T00:13:45;100820.16;;;9.69;80.84
9059;BME280;4564;42.034;25.834;2022-11-02T00:16:13;100819.13;;;9.62;81.17
9059;BME280;4564;42.034;25.834;2022-11-02T00:18:41;100821.50;;;9.65;81.30
9059;BME280;4564;42.034;25.834;2022-11-02T00:21:08;100816.75;;;9.67;81.20
9059;BME280;4564;42.034;25.834;2022-11-02T00:23:36;100815.75;;;9.60;81.56
9059;BME280;4564;42.034;25.834;2022-11-02T00:26:03;100807.59;;;9.52;81.83
9059;BME280;4564;42.034;25.834;2022-11-02T00:28:29;100809.63;;;9.50;82.11
9059;BME280;4564;42.034;25.834;2022-11-02T00:30:56;100807.59;;;9.52;82.16
9059;BME280;4564;42.034;25.834;2022-11-02T00:33:24;100813.03;;;9.52;81.94
9059;BME280;4564;42.034;25.834;2022-11-02T00:35:51;100800.47;;;9.51;81.66
9059;BME280;4564;42.034;25.834;2022-11-02T00:38:18;100809.47;;;9.44;82.24
9059;BME280;4564;42.034;25.834;2022-11-02T00:40:45;100801.84;;;9.39;82.96
9059;BME280;4564;42.034;25.834;2022-11-02T00:43:11;100809.63;;;9.42;83.06
9059;BME280;4564;42.034;25.834;2022-11-02T00:45:38;100804.88;;;9.36;83.40
9059;BME280;4564;42.034;25.834;2022-11-02T00:48:05;100804.53;;;9.31;83.17
9059;BME280;4564;42.034;25.834;2022-11-02T00:50:33;100809.09;;;9.31;82.89
9059;BME280;4564;42.034;25.834;2022-11-02T00:52:59;100797.41;;;9.30;82.84
9059;BME280;4564;42.034;25.834;2022-11-02T00:55:26;100796.06;;;9.26;82.41
9059;BME280;4564;42.034;25.834;2022-11-02T00:57:52;100795.06;;;9.27;82.36
9059;BME280;4564;42.034;25.834;2022-11-02T01:00:19;100800.81;;;9.32;82.59
9059;BME280;4564;42.034;25.834;2022-11-02T01:02:45;100789.28;;;9.22;82.65
9059;BME280;4564;42.034;25.834;2022-11-02T01:05:12;100785.38;;;9.16;82.32
9059;BME280;4564;42.034;25.834;2022-11-02T01:07:40;100789.91;;;9.08;81.97
9059;BME280;4564;42.034;25.834;2022-11-02T01:10:07;100784.38;;;9.17;82.83
9059;BME280;4564;42.034;25.834;2022-11-02T01:12:35;100795.31;;;9.00;82.90
9059;BME280;4564;42.034;25.834;2022-11-02T01:15:02;100785.69;;;9.05;83.09
9059;BME280;4564;42.034;25.834;2022-11-02T01:17:28;100777.22;;;9.08;82.84
9059;BME280;4564;42.034;25.834;2022-11-02T01:19:55;100785.66;;;8.97;82.40
9059;BME280;4564;42.034;25.834;2022-11-02T01:22:21;100780.09;;;8.91;82.80
9059;BME280;4564;42.034;25.834;2022-11-02T01:24:49;100789.22;;;8.90;81.96
9059;BME280;4564;42.034;25.834;2022-11-02T01:27:16;100788.16;;;8.82;82.01
9059;BME280;4564;42.034;25.834;2022-11-02T01:29:42;100779.03;;;8.83;82.42
9059;BME280;4564;42.034;25.834;2022-11-02T01:32:09;100780.78;;;9.01;82.56
9059;BME280;4564;42.034;25.834;2022-11-02T01:34:35;100773.00;;;9.06;82.20
9059;BME280;4564;42.034;25.834;2022-11-02T01:37:02;100782.78;;;8.99;82.34
9059;BME280;4564;42.034;25.834;2022-11-02T01:39:29;100787.16;;;8.92;82.55
9059;BME280;4564;42.034;25.834;2022-11-02T01:41:57;100783.09;;;8.88;82.78
9059;BME280;4564;42.034;25.834;2022-11-02T01:44:27;100778.38;;;8.90;82.29
9059;BME280;4564;42.034;25.834;2022-11-02T01:46:55;100780.88;;;8.83;82.19
9059;BME280;4564;42.034;25.834;2022-11-02T01:49:23;100776.94;;;8.69;82.95
9059;BME280;4564;42.034;25.834;2022-11-02T01:51:55;100779.81;;;8.68;83.08
9059;BME280;4564;42.034;25.834;2022-11-02T01:54:24;100778.81;;;8.69;83.49
9059;BME280;4564;42.034;25.834;2022-11-02T01:56:52;100776.41;;;8.58;82.99
9059;BME280;4564;42.034;25.834;2022-11-02T01:59:24;100780.13;;;8.57;83.97
9059;BME280;4564;42.034;25.834;2022-11-02T02:01:52;100782.00;;;8.64;84.67
9059;BME280;4564;42.034;25.834;2022-11-02T02:04:18;100781.31;;;8.62;84.39
9059;BME280;4564;42.034;25.834;2022-11-02T02:06:46;100777.56;;;8.55;84.94
9059;BME280;4564;42.034;25.834;2022-11-02T02:09:12;100773.81;;;8.48;84.57
9059;BME280;4564;42.034;25.834;2022-11-02T02:11:40;100781.41;;;8.45;84.57
9059;BME280;4564;42.034;25.834;2022-11-02T02:14:08;100785.81;;;8.46;83.92
9059;BME280;4564;42.034;25.834;2022-11-02T02:16:44;100780.88;;;8.41;83.70
9059;BME280;4564;42.034;25.834;2022-11-02T02:19:15;100776.13;;;8.35;83.24
9059;BME280;4564;42.034;25.834;2022-11-02T02:21:48;100783.38;;;8.34;83.82
9059;BME280;4564;42.034;25.834;2022-11-02T02:24:31;100780.69;;;8.34;83.49
9059;BME280;4564;42.034;25.834;2022-11-02T02:27:06;100779.97;;;8.32;83.62
9059;BME280;4564;42.034;25.834;2022-11-02T02:29:41;100773.94;;;8.38;83.07
9059;BME280;4564;42.034;25.834;2022-11-02T02:32:12;100773.78;;;8.40;83.60
9059;BME280;4564;42.034;25.834;2022-11-02T02:34:41;100767.19;;;8.42;83.35
9059;BME280;4564;42.034;25.834;2022-11-02T02:37:12;100770.34;;;8.30;83.54
9059;BME280;4564;42.034;25.834;2022-11-02T02:39:43;100772.31;;;8.28;83.29
9059;BME280;4564;42.034;25.834;2022-11-02T02:42:14;100778.72;;;8.27;83.74
9059;BME280;4564;42.034;25.834;2022-11-02T02:44:47;100772.66;;;8.25;83.49
9059;BME280;4564;42.034;25.834;2022-11-02T02:47:17;100777.34;;;8.15;84.10
9059;BME280;4564;42.034;25.834;2022-11-02T02:49:46;100772.97;;;8.22;83.85
9059;BME280;4564;42.034;25.834;2022-11-02T02:52:14;100772.81;;;8.23;83.86
9059;BME280;4564;42.034;25.834;2022-11-02T02:54:43;100781.44;;;8.27;84.20
9059;BME280;4564;42.034;25.834;2022-11-02T02:57:12;100770.25;;;8.22;83.95
9059;BME280;4564;42.034;25.834;2022-11-02T02:59:40;100768.84;;;8.10;83.21
9059;BME280;4564;42.034;25.834;2022-11-02T03:02:11;100766.59;;;8.05;84.14
9059;BME280;4564;42.034;25.834;2022-11-02T03:04:39;100765.75;;;8.05;83.75
9059;BME280;4564;42.034;25.834;2022-11-02T03:07:06;100771.13;;;7.96;84.00
9059;BME280;4564;42.034;25.834;2022-11-02T03:09:35;100773.50;;;7.99;83.90
9059;BME280;4564;42.034;25.834;2022-11-02T03:12:08;100766.81;;;8.12;84.39
9059;BME280;4564;42.034;25.834;2022-11-02T03:14:43;100767.47;;;8.06;83.85
9059;BME280;4564;42.034;25.834;2022-11-02T03:17:14;100769.66;;;8.02;84.10
9059;BME280;4564;42.034;25.834;2022-11-02T03:19:44;100767.63;;;8.04;84.60
9059;BME280;4564;42.034;25.834;2022-11-02T03:22:16;100772.50;;;8.00;84.57
9059;BME280;4564;42.034;25.834;2022-11-02T03:24:46;100769.16;;;8.07;83.85
9059;BME280;4564;42.034;25.834;2022-11-02T03:27:16;100772.97;;;7.96;83.90
9059;BME280;4564;42.034;25.834;2022-11-02T03:29:46;100762.16;;;7.96;83.83
9059;BME280;4564;42.034;25.834;2022-11-02T03:32:19;100753.00;;;7.89;83.96
9059;BME280;4564;42.034;25.834;2022-11-02T03:34:47;100766.47;;;7.81;83.74
9059;BME280;4564;42.034;25.834;2022-11-02T03:37:15;100764.91;;;7.78;83.58
9059;BME280;4564;42.034;25.834;2022-11-02T03:39:45;100764.59;;;7.81;84.18
9059;BME280;4564;42.034;25.834;2022-11-02T03:42:19;100759.94;;;7.91;84.61
9059;BME280;4564;42.034;25.834;2022-11-02T03:44:47;100760.94;;;7.90;83.42
9059;BME280;4564;42.034;25.834;2022-11-02T03:47:17;100768.41;;;7.96;83.25
9059;BME280;4564;42.034;25.834;2022-11-02T03:49:45;100769.06;;;7.90;83.64
9059;BME280;4564;42.034;25.834;2022-11-02T03:52:15;100761.66;;;7.92;83.55
9059;BME280;4564;42.034;25.834;2022-11-02T03:54:44;100760.25;;;7.88;82.98
9059;BME280;4564;42.034;25.834;2022-11-02T03:57:16;100752.13;;;7.88;83.68
9059;BME280;4564;42.034;25.834;2022-11-02T03:59:44;100751.25;;;7.80;82.51
9059;BME280;4564;42.034;25.834;2022-11-02T04:02:10;100753.44;;;7.76;83.17
9059;BME280;4564;42.034;25.834;2022-11-02T04:04:47;100754.81;;;7.80;83.17
9059;BME280;4564;42.034;25.834;2022-11-02T04:07:15;100754.31;;;7.85;83.64
9059;BME280;4564;42.034;25.834;2022-11-02T04:09:42;100755.50;;;7.82;83.20
9059;BME280;4564;42.034;25.834;2022-11-02T04:12:09;100754.84;;;7.88;82.53
9059;BME280;4564;42.034;25.834;2022-11-02T04:14:52;100750.09;;;7.82;82.17
9059;BME280;4564;42.034;25.834;2022-11-02T04:17:19;100748.41;;;7.81;83.42
9059;BME280;4564;42.034;25.834;2022-11-02T04:20:05;100747.78;;;7.87;81.60
9059;BME280;4564;42.034;25.834;2022-11-02T04:22:32;100745.00;;;7.79;82.04
9059;BME280;4564;42.034;25.834;2022-11-02T04:25:17;100745.81;;;7.72;81.98
9059;BME280;4564;42.034;25.834;2022-11-02T04:27:44;100746.09;;;7.69;81.83
9059;BME280;4564;42.034;25.834;2022-11-02T04:30:12;100748.31;;;7.73;81.31
9059;BME280;4564;42.034;25.834;2022-11-02T04:32:39;100747.66;;;7.71;81.02
9059;BME280;4564;42.034;25.834;2022-11-02T04:35:25;100744.59;;;7.66;81.63
9059;BME280;4564;42.034;25.834;2022-11-02T04:37:51;100745.59;;;7.65;81.78
9059;BME280;4564;42.034;25.834;2022-11-02T04:40:35;100744.69;;;7.82;81.52
9059;BME280;4564;42.034;25.834;2022-11-02T04:43:02;100746.31;;;7.75;81.67
9059;BME280;4564;42.034;25.834;2022-11-02T04:45:28;100740.94;;;7.75;81.39
9059;BME280;4564;42.034;25.834;2022-11-02T04:47:58;100736.31;;;7.68;81.72
9059;BME280;4564;42.034;25.834;2022-11-02T04:50:26;100743.97;;;7.54;82.04
9059;BME280;4564;42.034;25.834;2022-11-02T04:52:56;100747.53;;;7.55;82.81
9059;BME280;4564;42.034;25.834;2022-11-02T04:55:22;100749.75;;;7.59;82.84
9059;BME280;4564;42.034;25.834;2022-11-02T04:57:49;100748.53;;;7.54;82.94
9059;BME280;4564;42.034;25.834;2022-11-02T05:00:16;100747.81;;;7.52;82.68
9059;BME280;4564;42.034;25.834;2022-11-02T05:02:44;100746.22;;;7.59;83.10
9059;BME280;4564;42.034;25.834;2022-11-02T05:05:11;100756.38;;;7.65;83.03
9059;BME280;4564;42.034;25.834;2022-11-02T05:07:39;100748.81;;;7.69;82.63
9059;BME280;4564;42.034;25.834;2022-11-02T05:10:06;100751.41;;;7.78;81.74
9059;BME280;4564;42.034;25.834;2022-11-02T05:12:33;100753.91;;;7.72;81.09
9059;BME280;4564;42.034;25.834;2022-11-02T05:14:59;100756.13;;;7.76;80.58
9059;BME280;4564;42.034;25.834;2022-11-02T05:17:26;100755.56;;;7.73;80.66
9059;BME280;4564;42.034;25.834;2022-11-02T05:19:52;100745.84;;;7.80;80.15
9059;BME280;4564;42.034;25.834;2022-11-02T05:22:20;100760.25;;;7.88;80.16
9059;BME280;4564;42.034;25.834;2022-11-02T05:24:48;100767.41;;;7.97;80.57
9059;BME280;4564;42.034;25.834;2022-11-02T05:27:14;100765.75;;;8.05;79.98
9059;BME280;4564;42.034;25.834;2022-11-02T05:29:41;100770.81;;;8.25;79.63
9059;BME280;4564;42.034;25.834;2022-11-02T05:32:07;100768.63;;;8.29;78.73
9059;BME280;4564;42.034;25.834;2022-11-02T05:34:34;100734.38;;;8.12;78.87
9059;BME280;4564;42.034;25.834;2022-11-02T05:37:01;100778.00;;;8.42;78.12
9059;BME280;4564;42.034;25.834;2022-11-02T05:39:27;100779.47;;;8.63;77.51
9059;BME280;4564;42.034;25.834;2022-11-02T05:41:55;100782.78;;;8.99;77.00
9059;BME280;4564;42.034;25.834;2022-11-02T05:44:22;100784.06;;;9.45;74.53
9059;BME280;4564;42.034;25.834;2022-11-02T05:46:48;100795.56;;;9.95;73.26
9059;BME280;4564;42.034;25.834;2022-11-02T05:49:15;100781.03;;;10.60;71.81
9059;BME280;4564;42.034;25.834;2022-11-02T05:51:42;100784.09;;;11.26;68.09
9059;BME280;4564;42.034;25.834;2022-11-02T05:54:08;100783.13;;;11.88;65.66
9059;BME280;4564;42.034;25.834;2022-11-02T05:56:35;100784.16;;;12.53;63.63
9059;BME280;4564;42.034;25.834;2022-11-02T05:59:03;100781.56;;;13.11;61.25
9059;BME280;4564;42.034;25.834;2022-11-02T06:01:30;100786.25;;;13.53;59.55
9059;BME280;4564;42.034;25.834;2022-11-02T06:03:56;100788.44;;;13.85;57.83
9059;BME280;4564;42.034;25.834;2022-11-02T06:06:23;100788.22;;;14.36;57.74
9059;BME280;4564;42.034;25.834;2022-11-02T06:08:50;100795.56;;;14.69;56.80
9059;BME280;4564;42.034;25.834;2022-11-02T06:11:16;100790.94;;;15.04;56.04
9059;BME280;4564;42.034;25.834;2022-11-02T06:13:43;100786.50;;;15.71;53.31
9059;BME280;4564;42.034;25.834;2022-11-02T06:16:11;100788.84;;;16.00;51.98
9059;BME280;4564;42.034;25.834;2022-11-02T06:18:39;100794.94;;;16.35;50.49
9059;BME280;4564;42.034;25.834;2022-11-02T06:21:06;100769.19;;;16.49;49.73
9059;BME280;4564;42.034;25.834;2022-11-02T06:23:33;100790.44;;;16.73;49.92
9059;BME280;4564;42.034;25.834;2022-11-02T06:26:00;100790.38;;;16.93;49.10
9059;BME280;4564;42.034;25.834;2022-11-02T06:28:27;100782.72;;;17.08;48.68
9059;BME280;4564;42.034;25.834;2022-11-02T06:30:55;100794.63;;;17.34;48.44
9059;BME280;4564;42.034;25.834;2022-11-02T06:33:23;100794.25;;;17.68;46.69
9059;BME280;4564;42.034;25.834;2022-11-02T06:35:50;100794.06;;;17.94;46.89
9059;BME280;4564;42.034;25.834;2022-11-02T06:38:17;100790.75;;;18.11;46.41
9059;BME280;4564;42.034;25.834;2022-11-02T06:40:51;100788.16;;;18.40;47.16
9059;BME280;4564;42.034;25.834;2022-11-02T06:43:18;100794.63;;;18.71;45.60
9059;BME280;4564;42.034;25.834;2022-11-02T06:45:44;100791.72;;;18.84;46.82
9059;BME280;4564;42.034;25.834;2022-11-02T06:48:11;100794.56;;;18.77;46.36
9059;BME280;4564;42.034;25.834;2022-11-02T06:50:39;100793.00;;;18.63;47.04
9059;BME280;4564;42.034;25.834;2022-11-02T06:53:06;100780.34;;;18.99;46.68
9059;BME280;4564;42.034;25.834;2022-11-02T06:55:32;100783.47;;;19.20;46.50
9059;BME280;4564;42.034;25.834;2022-11-02T06:57:59;100791.09;;;19.66;45.91
9059;BME280;4564;42.034;25.834;2022-11-02T07:00:25;100787.88;;;19.69;46.15
9059;BME280;4564;42.034;25.834;2022-11-02T07:02:59;100779.31;;;20.01;45.82
9059;BME280;4564;42.034;25.834;2022-11-02T07:05:26;100781.00;;;20.02;47.43
9059;BME280;4564;42.034;25.834;2022-11-02T07:07:54;100782.38;;;20.34;47.60
9059;BME280;4564;42.034;25.834;2022-11-02T07:10:21;100772.44;;;20.57;47.48
9059;BME280;4564;42.034;25.834;2022-11-02T07:12:50;100772.81;;;21.00;46.29
9059;BME280;4564;42.034;25.834;2022-11-02T07:15:16;100780.69;;;21.31;45.21
9059;BME280;4564;42.034;25.834;2022-11-02T07:17:43;100776.25;;;21.59;45.40
9059;BME280;4564;42.034;25.834;2022-11-02T07:20:10;100775.63;;;21.85;44.51
9059;BME280;4564;42.034;25.834;2022-11-02T07:22:36;100772.72;;;21.63;46.34
9059;BME280;4564;42.034;25.834;2022-11-02T07:25:05;100780.59;;;22.16;44.99
9059;BME280;4564;42.034;25.834;2022-11-02T07:27:36;100776.28;;;21.92;45.70
9059;BME280;4564;42.034;25.834;2022-11-02T07:30:03;100771.28;;;21.32;47.76
9059;BME280;4564;42.034;25.834;2022-11-02T07:32:30;100770.31;;;21.39;47.60
9059;BME280;4564;42.034;25.834;2022-11-02T07:34:56;100756.84;;;21.02;48.82
9059;BME280;4564;42.034;25.834;2022-11-02T07:37:23;100764.94;;;19.99;52.21
9059;BME280;4564;42.034;25.834;2022-11-02T07:39:50;100753.59;;;19.65;53.36
9059;BME280;4564;42.034;25.834;2022-11-02T07:42:18;100759.41;;;19.27;54.77
9059;BME280;4564;42.034;25.834;2022-11-02T07:44:44;100754.38;;;18.76;56.36
9059;BME280;4564;42.034;25.834;2022-11-02T07:47:11;100754.25;;;18.46;58.44
9059;BME280;4564;42.034;25.834;2022-11-02T07:49:37;100754.03;;;18.48;58.92
9059;BME280;4564;42.034;25.834;2022-11-02T07:52:04;100744.63;;;18.37;58.75
9059;BME280;4564;42.034;25.834;2022-11-02T07:54:31;100746.00;;;18.46;58.47
9059;BME280;4564;42.034;25.834;2022-11-02T07:56:57;100729.50;;;18.71;57.55
9059;BME280;4564;42.034;25.834;2022-11-02T07:59:25;100724.34;;;18.75;57.77
9059;BME280;4564;42.034;25.834;2022-11-02T08:01:52;100718.84;;;18.75;57.52
9059;BME280;4564;42.034;25.834;2022-11-02T08:04:19;100713.44;;;18.86;57.25
9059;BME280;4564;42.034;25.834;2022-11-02T08:06:45;100718.50;;;19.01;56.65
9059;BME280;4564;42.034;25.834;2022-11-02T08:09:12;100718.28;;;19.03;55.88
9059;BME280;4564;42.034;25.834;2022-11-02T08:11:39;100707.47;;;19.19;56.42
9059;BME280;4564;42.034;25.834;2022-11-02T08:14:06;100702.59;;;19.21;54.97
9059;BME280;4564;42.034;25.834;2022-11-02T08:16:34;100705.88;;;19.12;55.04
9059;BME280;4564;42.034;25.834;2022-11-02T08:19:01;100701.25;;;19.24;55.00
9059;BME280;4564;42.034;25.834;2022-11-02T08:21:27;100698.91;;;19.39;55.02
9059;BME280;4564;42.034;25.834;2022-11-02T08:23:54;100691.22;;;19.48;53.58
9059;BME280;4564;42.034;25.834;2022-11-02T08:26:21;100690.63;;;19.57;53.23
9059;BME280;4564;42.034;25.834;2022-11-02T08:28:47;100691.09;;;19.66;53.61
9059;BME280;4564;42.034;25.834;2022-11-02T08:31:14;100689.94;;;19.74;53.87
9059;BME280;4564;42.034;25.834;2022-11-02T08:33:42;100688.38;;;19.78;52.81
9059;BME280;4564;42.034;25.834;2022-11-02T08:36:09;100683.72;;;19.90;52.51
9059;BME280;4564;42.034;25.834;2022-11-02T08:38:36;100676.28;;;20.02;52.21
9059;BME280;4564;42.034;25.834;2022-11-02T08:41:03;100679.28;;;20.12;50.94
9059;BME280;4564;42.034;25.834;2022-11-02T08:43:30;100677.38;;;20.24;50.59
9059;BME280;4564;42.034;25.834;2022-11-02T08:45:57;100675.44;;;20.25;50.83
9059;BME280;4564;42.034;25.834;2022-11-02T08:48:24;100675.34;;;20.31;50.31
9059;BME280;4564;42.034;25.834;2022-11-02T08:50:52;100666.00;;;20.32;50.08
9059;BME280;4564;42.034;25.834;2022-11-02T08:53:20;100671.38;;;20.39;49.64
9059;BME280;4564;42.034;25.834;2022-11-02T08:55:47;100664.75;;;20.51;50.77
9059;BME280;4564;42.034;25.834;2022-11-02T08:58:14;100662.78;;;20.64;49.71
9059;BME280;4564;42.034;25.834;2022-11-02T09:00:40;100658.63;;;20.61;47.57
9059;BME280;4564;42.034;25.834;2022-11-02T09:03:08;100654.16;;;20.72;48.14
9059;BME280;4564;42.034;25.834;2022-11-02T09:05:35;100647.75;;;20.83;47.63
9059;BME280;4564;42.034;25.834;2022-11-02T09:08:04;100651.56;;;20.93;47.63
9059;BME280;4564;42.034;25.834;2022-11-02T09:10:32;100642.38;;;21.05;47.92
9059;BME280;4564;42.034;25.834;2022-11-02T09:13:00;100641.13;;;21.12;46.90
9059;BME280;4564;42.034;25.834;2022-11-02T09:15:28;100635.56;;;21.24;46.87
9059;BME280;4564;42.034;25.834;2022-11-02T09:17:55;100597.59;;;21.14;45.65
9059;BME280;4564;42.034;25.834;2022-11-02T09:20:21;100625.53;;;21.34;45.27
9059;BME280;4564;42.034;25.834;2022-11-02T09:22:48;100630.06;;;21.41;46.31
9059;BME280;4564;42.034;25.834;2022-11-02T09:25:16;100620.88;;;21.52;45.99
9059;BME280;4564;42.034;25.834;2022-11-02T09:27:43;100618.19;;;21.57;45.38
9059;BME280;4564;42.034;25.834;2022-11-02T09:30:11;100608.53;;;21.59;44.44
9059;BME280;4564;42.034;25.834;2022-11-02T09:32:38;100601.69;;;21.62;44.49
9059;BME280;4564;42.034;25.834;2022-11-02T09:35:06;100609.81;;;21.68;44.82
9059;BME280;4564;42.034;25.834;2022-11-02T09:37:33;100607.81;;;21.81;45.19
9059;BME280;4564;42.034;25.834;2022-11-02T09:39:59;100601.59;;;21.90;43.77
9059;BME280;4564;42.034;25.834;2022-11-02T09:42:28;100600.59;;;21.96;44.21
9059;BME280;4564;42.034;25.834;2022-11-02T09:44:59;100597.31;;;21.99;43.16
9059;BME280;4564;42.034;25.834;2022-11-02T09:47:27;100590.47;;;22.02;42.60
9059;BME280;4564;42.034;25.834;2022-11-02T09:49:57;100589.22;;;22.14;43.70
9059;BME280;4564;42.034;25.834;2022-11-02T09:52:26;100588.91;;;22.33;42.93
9059;BME280;4564;42.034;25.834;2022-11-02T09:54:55;100585.69;;;22.41;42.38
9059;BME280;4564;42.034;25.834;2022-11-02T09:57:26;100579.47;;;22.50;43.08
9059;BME280;4564;42.034;25.834;2022-11-02T09:59:54;100575.84;;;22.50;42.26
9059;BME280;4564;42.034;25.834;2022-11-02T10:02:23;100567.03;;;22.53;41.75
9059;BME280;4564;42.034;25.834;2022-11-02T10:04:58;100564.44;;;22.68;41.08
9059;BME280;4564;42.034;25.834;2022-11-02T10:07:40;100555.13;;;22.74;40.56
9059;BME280;4564;42.034;25.834;2022-11-02T10:10:13;100551.25;;;22.75;40.04
9059;BME280;4564;42.034;25.834;2022-11-02T10:12:42;100551.34;;;22.85;39.51
9059;BME280;4564;42.034;25.834;2022-11-02T10:15:16;100545.56;;;22.87;37.63
9059;BME280;4564;42.034;25.834;2022-11-02T10:17:44;100542.72;;;23.09;37.23
9059;BME280;4564;42.034;25.834;2022-11-02T10:20:15;100537.88;;;23.26;36.82
9059;BME280;4564;42.034;25.834;2022-11-02T10:22:45;100534.31;;;23.30;36.63
9059;BME280;4564;42.034;25.834;2022-11-02T10:25:13;100524.34;;;23.29;36.98
9059;BME280;4564;42.034;25.834;2022-11-02T10:27:42;100519.09;;;23.33;37.37
9059;BME280;4564;42.034;25.834;2022-11-02T10:30:09;100511.41;;;23.40;37.39
9059;BME280;4564;42.034;25.834;2022-11-02T10:32:40;100512.50;;;23.39;37.21
9059;BME280;4564;42.034;25.834;2022-11-02T10:35:11;100506.69;;;23.40;37.25
9059;BME280;4564;42.034;25.834;2022-11-02T10:37:46;100506.44;;;23.42;36.63
9059;BME280;4564;42.034;25.834;2022-11-02T10:40:21;100501.53;;;23.54;37.34
9059;BME280;4564;42.034;25.834;2022-11-02T10:42:55;100500.19;;;23.57;36.23
9059;BME280;4564;42.034;25.834;2022-11-02T10:48:08;100495.22;;;23.59;36.02
9059;BME280;4564;42.034;25.834;2022-11-02T10:50:45;100496.03;;;23.59;34.98
9059;BME280;4564;42.034;25.834;2022-11-02T10:53:13;100489.44;;;23.70;35.40
9059;BME280;4564;42.034;25.834;2022-11-02T10:55:42;100491.94;;;23.72;35.45
9059;BME280;4564;42.034;25.834;2022-11-02T10:58:12;100482.00;;;23.81;35.79
9059;BME280;4564;42.034;25.834;2022-11-02T11:00:40;100476.22;;;23.88;34.82
9059;BME280;4564;42.034;25.834;2022-11-02T11:03:10;100476.84;;;24.00;34.85
9059;BME280;4564;42.034;25.834;2022-11-02T11:05:42;100472.66;;;24.02;34.95
9059;BME280;4564;42.034;25.834;2022-11-02T11:08:30;100476.88;;;24.10;34.79
9059;BME280;4564;42.034;25.834;2022-11-02T11:11:09;100470.47;;;24.09;34.26
9059;BME280;4564;42.034;25.834;2022-11-02T11:13:36;100469.38;;;24.10;34.21
9059;BME280;4564;42.034;25.834;2022-11-02T11:16:03;100464.13;;;24.14;34.32
9059;BME280;4564;42.034;25.834;2022-11-02T11:18:31;100460.81;;;24.12;34.28
9059;BME280;4564;42.034;25.834;2022-11-02T11:20:58;100460.22;;;24.10;34.04
9059;BME280;4564;42.034;25.834;2022-11-02T11:23:25;100459.16;;;24.16;34.46
9059;BME280;4564;42.034;25.834;2022-11-02T11:25:53;100449.97;;;24.15;34.23
9059;BME280;4564;42.034;25.834;2022-11-02T11:28:21;100444.47;;;24.20;33.85
9059;BME280;4564;42.034;25.834;2022-11-02T11:30:49;100442.28;;;24.22;33.44
9059;BME280;4564;42.034;25.834;2022-11-02T11:33:26;100442.28;;;24.22;33.60
9059;BME280;4564;42.034;25.834;2022-11-02T11:35:54;100433.13;;;24.27;33.51
9059;BME280;4564;42.034;25.834;2022-11-02T11:38:21;100437.00;;;24.31;33.09
9059;BME280;4564;42.034;25.834;2022-11-02T11:40:50;100437.59;;;24.33;33.46
9059;BME280;4564;42.034;25.834;2022-11-02T11:43:18;100431.47;;;24.31;32.65
9059;BME280;4564;42.034;25.834;2022-11-02T11:45:53;100431.22;;;24.38;32.58
9059;BME280;4564;42.034;25.834;2022-11-02T11:48:25;100425.66;;;24.43;32.61
9059;BME280;4564;42.034;25.834;2022-11-02T11:53:43;100421.22;;;24.42;32.21
9059;BME280;4564;42.034;25.834;2022-11-02T11:56:29;100415.13;;;24.50;31.99
9059;BME280;4564;42.034;25.834;2022-11-02T11:58:55;100418.75;;;24.55;32.01
9059;BME280;4564;42.034;25.834;2022-11-02T12:01:22;100403.75;;;24.56;32.58
9059;BME280;4564;42.034;25.834;2022-11-02T12:03:50;100408.19;;;24.52;32.54
9059;BME280;4564;42.034;25.834;2022-11-02T12:06:19;100407.09;;;24.48;32.54
9059;BME280;4564;42.034;25.834;2022-11-02T12:08:51;100404.31;;;24.48;32.12
9059;BME280;4564;42.034;25.834;2022-11-02T12:11:30;100400.44;;;24.44;32.12
9059;BME280;4564;42.034;25.834;2022-11-02T12:14:03;100397.09;;;24.42;32.48
9059;BME280;4564;42.034;25.834;2022-11-02T12:16:34;100390.69;;;24.42;31.55
9059;BME280;4564;42.034;25.834;2022-11-02T12:19:11;100387.09;;;24.46;32.42
9059;BME280;4564;42.034;25.834;2022-11-02T12:21:44;100379.91;;;24.45;31.76
9059;BME280;4564;42.034;25.834;2022-11-02T12:24:23;100374.34;;;24.45;31.56
9059;BME280;4564;42.034;25.834;2022-11-02T12:26:55;100370.44;;;24.36;32.14
9059;BME280;4564;42.034;25.834;2022-11-02T12:29:33;100363.78;;;24.32;31.93
9059;BME280;4564;42.034;25.834;2022-11-02T12:32:03;100369.34;;;24.37;32.32
9059;BME280;4564;42.034;25.834;2022-11-02T12:34:39;100364.88;;;24.36;32.35
9059;BME280;4564;42.034;25.834;2022-11-02T12:37:15;100361.00;;;24.37;32.70
9059;BME280;4564;42.034;25.834;2022-11-02T12:39:48;100356.56;;;24.36;32.22
9059;BME280;4564;42.034;25.834;2022-11-02T12:42:22;100357.13;;;24.33;32.62
9059;BME280;4564;42.034;25.834;2022-11-02T12:44:57;100356.03;;;24.34;32.02
9059;BME280;4564;42.034;25.834;2022-11-02T12:47:34;100354.63;;;24.37;32.06
9059;BME280;4564;42.034;25.834;2022-11-02T12:50:06;100346.03;;;24.38;31.63
9059;BME280;4564;42.034;25.834;2022-11-02T12:52:38;100346.03;;;24.28;32.47
9059;BME280;4564;42.034;25.834;2022-11-02T12:55:12;100349.56;;;24.13;32.40
9059;BME280;4564;42.034;25.834;2022-11-02T12:57:41;100345.69;;;24.14;32.06
9059;BME280;4564;42.034;25.834;2022-11-02T13:00:14;100349.84;;;24.07;32.51
9059;BME280;4564;42.034;25.834;2022-11-02T13:02:43;100348.19;;;24.06;32.38
9059;BME280;4564;42.034;25.834;2022-11-02T13:05:13;100337.09;;;24.01;33.09
9059;BME280;4564;42.034;25.834;2022-11-02T13:07:43;100347.34;;;23.95;32.54
9059;BME280;4564;42.034;25.834;2022-11-02T13:10:14;100339.84;;;23.96;32.29
9059;BME280;4564;42.034;25.834;2022-11-02T13:12:42;100340.13;;;23.94;32.14
9059;BME280;4564;42.034;25.834;2022-11-02T13:15:10;100336.53;;;24.09;35.96
9059;BME280;4564;42.034;25.834;2022-11-02T13:17:39;100334.94;;;24.23;36.85
9059;BME280;4564;42.034;25.834;2022-11-02T13:20:12;100328.56;;;24.28;37.73